| |
Missouri Department of Transportation

Social Media Facebook Twitter Flickr Blog YouTube RSS

Current METAR Information for All MoDOT Locations 
AWOS Home - General Info for all Airports
Current AWOS for all Airports - Current METAR for all Airports
Glossary - Disclaimer - Other Links


Automated Weather Observation System
Date: 11-23-2014
 
Location Current METAR Record
HANNIBAL METAR KHAE 240007Z AUTO 00000KT 3/4SM RA OVC003 12/11 A2926 RMK AO2
HARRISONVILLE  No current data available
LEBANON METAR KLBO 240105Z AUTO 00000KT 1/4SM FG OVC001 11/10 A2930 RMK AO2 LTG DSNT SW THRU NW
MALDEN  No current data available
MARSHALL METAR KMHL 240153Z AUTO 33003KT 1/4SM FG OVC003 13/13 A2929 RMK AO2
MARYVILLE  No current data available
MEXICO METAR KMYJ 240059Z AUTO 00000KT 3/4SM BR OVC002 A2927 RMK AO2
MOBERLY METAR KMBY 240059Z AUTO 00000KT 1/2SM FG OVC001 12/10 A2928 RMK AO2 P0001
NEVADA METAR KNVD 240130Z AUTO 32015G25KT 10SM DZ OVC010 08/07 A2937 RMK AO2
PIEDMONT  No current data available
SIKESTON  No current data available
SULLIVAN METAR KUUV 240109Z AUTO 21006KT 10SM BKN005 OVC011 13/12 A2931 RMK AO2
WARSAW  No current data available
About Us
How Do I...
Contact Us
Missouri Department of Transportation
Central Office
105 W. Capitol Avenue
Jefferson City, MO 65102
1-888-ASK-MODOT (275-6636)
1-866-831-6277 (Motor Carrier Services)
Drivers License Offices
horz_bar
| | |
Missouri State Government
© 2013 Missouri Department of Transportation. All Rights Reserved.   Privacy Policy.
 
 
 
 
RSS FeedYoutubeBlogFlickrTwitter Facebook